»·PEaware :: N851TX KATL-KCLT

N851TX :: KATL-KCLT

FLIGHT INFORMATION

Flight Status: Arrived
Operator: Privately registered:
United States
More flights under this callsign
Pilot: Andrew J. (13363)
Aircraft: SOCATA TBM-900
(TBM9)
More flights by this aircraft type
Origin: KATL Hartsfield-Jackson Atlanta
United States
Destination: KCLT Charlotte/Douglas Intl
United States
More flights between these airports :: More routes between these airports
Route: ATL9 EAONE AHN V66 GRD UNARM5
File this flight plan on PilotEdge
Remarks:
Altitude:
(Current/Filed)
25,000ft
Speed:
(Current/Filed)
307kts
Departed: 01-Jul-18 09:45 PM
Arrived: 01-Jul-18 10:44 PM
Distance/Time
Traveled:
197nm/0:59
Distance/Time
To Go:
Arrived

Flight Plot

Page will automatically refresh every two minutes.

Flight plan parsing failed; only flown route is shown


Map Options




Map Legend


Flown Route
Filed Route
Departure Airport
Arrival Airport
Navaid (VOR, NDB)
Fix

Horizontal Profiles

Position Reports

Time Latitude Longitude Heading Altitude Ground
Speed
01-Jul-18 21:35 33.652364 -84.424129 237 1027ft 0kts
01-Jul-18 21:36 33.652364 -84.424129 237 1027ft 0kts
01-Jul-18 21:37 33.652364 -84.424129 237 1027ft 0kts
01-Jul-18 21:38 33.652364 -84.424129 237 1027ft 0kts
01-Jul-18 21:39 33.652364 -84.424129 237 1027ft 0kts
01-Jul-18 21:40 33.652364 -84.424129 237 1027ft 0kts
01-Jul-18 21:41 33.652364 -84.424129 237 1027ft 0kts
01-Jul-18 21:42 33.652364 -84.424129 237 1027ft 0kts
01-Jul-18 21:43 33.652262 -84.424244 202 1027ft 2kts
01-Jul-18 21:44 33.651389 -84.422388 136 1027ft 11kts
01-Jul-18 21:45 33.649468 -84.430844 267 1042ft 115kts
01-Jul-18 21:46 33.662390 -84.471995 324 3083ft 168kts
01-Jul-18 21:47 33.699025 -84.473005 59 5660ft 163kts
01-Jul-18 21:48 33.713514 -84.420203 74 8144ft 171kts
01-Jul-18 21:49 33.726228 -84.371703 76 10616ft 166kts
01-Jul-18 21:50 33.740127 -84.318528 77 13119ft 171kts
01-Jul-18 21:51 33.754295 -84.264155 75 15793ft 171kts
01-Jul-18 21:52 33.768442 -84.209835 74 18594ft 175kts
01-Jul-18 21:53 33.783584 -84.151649 73 21076ft 189kts
01-Jul-18 21:55 33.799490 -84.090433 72 23343ft 197kts
01-Jul-18 21:56 33.817333 -84.021574 71 24851ft 237kts
01-Jul-18 21:57 33.838636 -83.939119 71 25045ft 276kts
01-Jul-18 21:58 33.861971 -83.848465 72 25102ft 289kts
01-Jul-18 21:59 33.881450 -83.754435 78 25167ft 292kts
01-Jul-18 22:00 33.896479 -83.657905 78 25173ft 295kts
01-Jul-18 22:01 33.911454 -83.560870 78 25172ft 295kts
01-Jul-18 22:02 33.926247 -83.464496 78 25166ft 289kts
01-Jul-18 22:03 33.940702 -83.369800 78 25156ft 287kts
01-Jul-18 22:04 33.960103 -83.277596 71 25147ft 286kts
01-Jul-18 22:05 33.984161 -83.186474 72 25281ft 281kts
01-Jul-18 22:06 33.972345 -83.109430 137 28101ft 235kts
01-Jul-18 22:07 33.916326 -83.075519 153 30478ft 229kts
01-Jul-18 22:08 33.857212 -83.036683 143 31182ft 266kts
01-Jul-18 22:09 33.793064 -82.982122 143 31166ft 296kts
01-Jul-18 22:10 33.724296 -82.923628 143 31161ft 309kts
01-Jul-18 22:11 33.668421 -82.841465 123 30092ft 338kts
01-Jul-18 22:12 33.615592 -82.745659 123 29179ft 340kts
01-Jul-18 22:13 33.579376 -82.645150 91 28789ft 336kts
01-Jul-18 22:14 33.607056 -82.538108 64 27234ft 345kts
01-Jul-18 22:15 33.647203 -82.432920 64 25659ft 349kts
01-Jul-18 22:16 33.687825 -82.328519 64 24092ft 349kts
01-Jul-18 22:17 33.731916 -82.225618 44 22456ft 341kts
01-Jul-18 22:18 33.816508 -82.190391 13 21411ft 315kts
01-Jul-18 22:19 33.899766 -82.164076 13 21160ft 303kts
01-Jul-18 22:20 33.981293 -82.133443 23 20093ft 324kts
01-Jul-18 22:21 34.065862 -82.089237 23 18139ft 337kts
01-Jul-18 22:22 34.149250 -82.045752 23 16564ft 330kts
01-Jul-18 22:23 34.231608 -82.002730 24 15378ft 315kts
01-Jul-18 22:24 34.310653 -81.961350 24 14041ft 307kts
01-Jul-18 22:25 34.388525 -81.920490 25 12698ft 304kts
01-Jul-18 22:26 34.465072 -81.880121 28 11359ft 296kts
01-Jul-18 22:27 34.522457 -81.811355 47 10074ft 290kts
01-Jul-18 22:28 34.576704 -81.742361 48 8799ft 272kts
01-Jul-18 22:29 34.628009 -81.676915 47 7602ft 265kts
01-Jul-18 22:30 34.677239 -81.614065 47 7158ft 246kts
01-Jul-18 22:31 34.723612 -81.554730 47 7162ft 240kts
01-Jul-18 22:32 34.769634 -81.495734 47 7163ft 240kts
01-Jul-18 22:33 34.816699 -81.435255 46 6045ft 254kts
01-Jul-18 22:34 34.865609 -81.372345 46 4548ft 257kts
01-Jul-18 22:35 34.914329 -81.309629 46 3069ft 259kts
01-Jul-18 22:36 34.963289 -81.246406 46 2158ft 244kts
01-Jul-18 22:36 35.001077 -81.197524 46 2162ft 234kts
01-Jul-18 22:37 35.045387 -81.140105 46 2162ft 219kts
01-Jul-18 22:38 35.077943 -81.095270 63 2161ft 167kts
01-Jul-18 22:39 35.099284 -81.045312 62 2164ft 166kts
01-Jul-18 22:40 35.120592 -80.995508 62 2164ft 166kts
01-Jul-18 22:41 35.144895 -80.949596 47 1918ft 161kts
01-Jul-18 22:42 35.179102 -80.931635 349 1169ft 124kts
01-Jul-18 22:43 35.205184 -80.934512 355 754ft 68kts
01-Jul-18 22:44 35.211110 -80.932461 157 752ft 12kts
01-Jul-18 22:45 35.210143 -80.931973 85 752ft 0kts
01-Jul-18 22:46 35.210143 -80.931974 85 752ft 0kts
01-Jul-18 22:47 35.210143 -80.931974 85 752ft 0kts

Navigation Log

Ident Type
Flight plan parsing failed, navigation log unavailable